Steedman, South Carolina
Current Conditions -  °F | °C
As of 9:56 PM on Friday 31 Oct 2014 (Local Time) from KCAE Reporting Station
Broken Clouds Broken Clouds  
Wind Chill: 57°   Ceiling: 5000
Heat Index: 57°   Visibility: 10mi
Dew Point: 49°   Wind: 5mph
Humidity: 74%   Direction: 250°WSW
Pressure: 29.78"   Gusts: NA
Location:  33.8822°N, 81.433°W
Report Text: KCAE 010156Z 25004KT 10SM BKN050 BKN065 14/09 A2978 RMK AO2 RAB40E50 SLP084 P0000 T01390094
Loading
Personal Weather Stations






























Interactive Weather Map
Tropical Storm Tracking
New forecast layout! Learn more

10-Day Weather Forecast

Advertisements
Track Severe Weather on mobile